Cassville, Georgia
Current Conditions -  °F | °C
As of 10:53 AM on Sunday 21 Dec 2014 (Local Time) from KVPC Reporting Station
Overcast Overcast  
Wind Chill: 45°   Ceiling: 1300
Heat Index: 48°   Visibility: 8mi
Dew Point: 42°   Wind: 6mph
Humidity: 80%   Direction: NA
Pressure: 30.22"   Gusts: NA
Location:  34.24°N, 84.85°W
Report Text: KVPC 211553Z AUTO VRB05KT 8SM OVC013 09/06 A3022 RMK AO2 SLP229 T00890056
Loading
Personal Weather Stations






























Interactive Weather Map New forecast layout! Learn more

10-Day Weather Forecast

Advertisements
Track Severe Weather on mobile